Flight Track Log - Related Links

Times and Time Zones

All times are in EDT time to prevent confusion due to time zone crossing. See the SKW5641 flight status page for this flight to view local times or setup timezone preferences in your user account.

Time Position Orientation Groundspeed Altitude Reporting Facility
EDT Latitude Longitude Course Direction KTS MPH feet Rate Location/Type
Sun 07:38:17 PM 40.8056 -111.9628 354° North 173 199 5,000  Level Salt Lake Center
Sun 07:38:48 PM 40.8333 -111.9669 354° North 170 196 5,700 1,742 Climbing Salt Lake Center
Sun 07:39:50 PM 40.8994 -111.9764 354° North 240 276 7,700 2,341 Climbing Salt Lake Center
Sun 07:40:51 PM 40.9731 -111.9844 355° North 261 300 10,500 2,585 Climbing Salt Lake Center
Sun 07:41:53 PM 41.0142 -111.8969 58° Northeast 311 358 13,000 1,887 Climbing Salt Lake Center
Sun 07:42:55 PM 40.9722 -111.7642 113° Southeast 352 405 14,400 1,268 Climbing Salt Lake Center
Sun 07:43:56 PM 40.9294 -111.6294 113° Southeast 400 460 15,600 1,317 Climbing Salt Lake Center
Sun 07:44:58 PM 40.9142 -111.4711 97° East 438 504 17,100 1,610 Climbing Salt Lake Center
Sun 07:45:59 PM 40.9014 -111.3069 96° East 451 519 18,900 1,805 Climbing Salt Lake Center
Sun 07:47:01 PM 40.8878 -111.1417 96° East 454 522 20,800 1,854 Climbing Salt Lake Center
Sun 07:48:02 PM 40.8750 -110.9753 96° East 456 525 22,700 1,854 Climbing Salt Lake Center
Sun 07:49:04 PM 40.8608 -110.8089 96° East 457 526 24,600 1,854 Climbing Salt Lake Center
Sun 07:50:05 PM 40.8444 -110.6111 96° East 455 524 26,500 1,220 Climbing Salt Lake Center
Sun 07:51:07 PM 40.8308 -110.4431 96° East 465 535 27,100 585 Climbing Salt Lake Center
Sun 07:52:08 PM 40.8164 -110.2692 96° East 495 570 27,700 585 Climbing Salt Lake Center
Sun 07:53:10 PM 40.7989 -110.0853 97° East 509 586 28,300 829 Climbing Salt Lake Center
Sun 07:54:11 PM 40.7811 -109.8753 96° East 514 592 29,400 1,024 Climbing Salt Lake Center
Sun 07:55:13 PM 40.7653 -109.6944 97° East 517 595 30,400 1,016 Climbing Salt Lake Center
Sun 07:56:15 PM 40.7456 -109.4856 97° East 515 593 31,500 1,024 Climbing Salt Lake Center
Sun 07:57:16 PM 40.7283 -109.3078 97° East 510 587 32,500 1,024 Climbing Salt Lake Center
Sun 07:58:18 PM 40.7103 -109.1142 97° East 512 589 33,600 976 Climbing Salt Lake Center
Sun 07:59:19 PM 40.6925 -108.9417 98° East 504 580 34,500 938 Climbing Salt Lake Center
Sun 07:59:54 PM 40.6833 -108.8361 96° East 502 578 35,100 1,052 Climbing Denver Center
Sun 08:00:56 PM 40.6636 -108.6339 97° East 498 573 36,200 1,023 Climbing Denver Center
Sun 08:01:22 PM 40.6553 -108.5692 100° East 496 571 36,600 1,023 Climbing Salt Lake Center
Sun 08:02:24 PM 40.6353 -108.3725 98° East 489 563 37,700 1,052 Climbing Salt Lake Center
Sun 08:02:59 PM 40.6250 -108.2669 97° East 485 558 38,300 984 Climbing Denver Center
Sun 08:03:25 PM 40.6186 -108.2069 98° East 480 552 38,700 677 Climbing Salt Lake Center
Sun 08:04:01 PM 40.6078 -108.1022 98° East 476 548 39,000 184 Climbing Denver Center
Sun 08:05:03 PM 40.5861 -107.9089 98° East 479 551 39,000  Level Denver Center
Sun 08:06:05 PM 40.5681 -107.7392 98° East 486 559 39,000  Level Denver Center
Sun 08:07:07 PM 40.5497 -107.5658 98° East 496 571 39,000  Level Denver Center
Sun 08:08:09 PM 40.5267 -107.3639 98° East 498 573 39,000  Level Denver Center
Sun 08:09:10 PM 40.5142 -107.2069 96° East 498 573 39,000  Level Denver Center
Sun 08:10:12 PM 40.5067 -106.9864 92° East 500 575 39,000 -339 Level Denver Center
Sun 08:11:14 PM 40.5431 -106.8158 74° East 488 562 38,300 -968 Descending Denver Center
Sun 08:12:16 PM 40.5792 -106.6408 75° East 493 567 37,000 -1,355 Descending Denver Center
Sun 08:13:18 PM 40.6181 -106.4656 74° East 488 562 35,500 -2,098 Descending Denver Center
Sun 08:14:19 PM 40.6519 -106.2950 75° East 497 572 32,700 -2,976 Descending Denver Center
Sun 08:15:21 PM 40.6497 -106.0942 91° East 519 597 29,400 -2,710 Descending Denver Center
Sun 08:16:23 PM 40.5897 -105.9294 116° Southeast 501 577 27,100 -1,161 Descending Denver Center
Sun 08:17:25 PM 40.5219 -105.7842 122° Southeast 468 539 27,000 -1,065 Descending Denver Center
Sun 08:18:27 PM 40.4147 -105.6944 147° Southeast 453 521 24,900 -2,226 Descending Denver Center
Sun 08:19:29 PM 40.3306 -105.5539 128° Southeast 449 517 22,400 -1,984 Descending Denver Center
Sun 08:20:31 PM 40.2831 -105.4167 114° Southeast 429 494 20,800 -1,220 Descending Denver Center
Sun 08:21:32 PM 40.2353 -105.2944 117° Southeast 380 437 19,900 -1,122 Descending Denver Center
Sun 08:22:34 PM 40.1875 -105.1719 117° Southeast 354 407 18,500 -1,452 Descending Denver Center
Sun 08:23:36 PM 40.1333 -105.0719 125° Southeast 335 386 16,900 -1,452 Descending Denver Center
Sun 08:24:38 PM 40.0844 -104.9806 125° Southeast 306 352 15,500 -1,790 Descending Denver Center
Sun 08:25:40 PM 40.0367 -104.8911 125° Southeast 279 321 13,200 -1,548 Descending Denver Center
Sun 08:26:42 PM 39.9950 -104.8117 124° Southeast 269 310 12,300 -878 Descending Denver Center
Sun 08:27:43 PM 39.9875 -104.7186 96° East 262 302 11,400 -585 Descending Denver Center
Sun 08:28:45 PM 39.9850 -104.6139 92° East 267 307 11,100 -211 Descending Denver Center
Sun 08:29:37 PM 39.9667 -104.5333 107° East 272 313 11,000 -595 Descending Denver TRACON
Sun 08:30:36 PM 39.9333 -104.4500 118° Southeast 255 293 10,000 -1,160 Descending Denver TRACON
Sun 08:31:36 PM 39.9000 -104.4000 131° Southeast 240 276 8,700 -1,200 Descending Denver TRACON
Sun 08:32:31 PM 39.8833 -104.4667 252° West 183 211 7,700 -1,096 Descending Denver TRACON
Sun 08:33:31 PM 39.8833 -104.5333 270° West 177 204 6,600 -900 Descending Denver TRACON
Sun 08:34:31 PM 39.8833 -104.5833 270° West 153 176 5,900 -493 Descending Denver TRACON
Sun 08:35:57 PM 39.8772 -104.6519 263° West 150 173 5,400 -349 Descending Denver Center
Sun 08:37:00 PM 39.8617 -104.6732 180° South  Level Estimated
Sun 08:44:00 PM 39.8617 -104.6732 14° North  Level Estimated
Sun 08:45:00 PM 39.8617 -104.6732 North  Level Estimated
Sun 08:46:00 PM 39.8617 -104.6732 North  Level Estimated

Login

Don't have an account? Register now (free) for customized features, flight alerts, and more!